createdAt,value
2019-04-23T00:02:19.750Z,17.20
2019-04-23T00:04:48.063Z,17.20
2019-04-23T00:07:26.993Z,17.10
2019-04-23T00:09:49.117Z,17.00
2019-04-23T00:12:23.787Z,17.00
2019-04-23T00:14:49.887Z,16.90
2019-04-23T00:17:14.962Z,16.90
2019-04-23T00:19:39.684Z,16.90
2019-04-23T00:22:13.305Z,17.00
2019-04-23T00:27:30.725Z,16.70
2019-04-23T00:29:53.188Z,16.70
2019-04-23T00:34:49.656Z,16.70
2019-04-23T00:37:24.323Z,16.50
2019-04-23T00:39:42.489Z,16.50
2019-04-23T00:42:10.467Z,16.40
2019-04-23T00:44:40.437Z,16.40
2019-04-23T00:47:01.064Z,16.30
2019-04-23T00:49:37.085Z,16.30
2019-04-23T00:52:04.554Z,16.30
2019-04-23T00:54:30.766Z,16.20
2019-04-23T00:59:23.208Z,16.10
2019-04-23T01:04:20.791Z,16.00
2019-04-23T01:06:56.309Z,15.90
2019-04-23T01:09:14.260Z,15.90
2019-04-23T01:11:43.590Z,15.80
2019-04-23T01:14:13.657Z,15.80
2019-04-23T01:16:37.509Z,15.80
2019-04-23T01:19:24.653Z,15.70
2019-04-23T01:21:28.434Z,15.70
2019-04-23T01:24:14.375Z,15.60
2019-04-23T01:27:32.251Z,15.60
2019-04-23T01:29:52.454Z,15.50
2019-04-23T01:32:15.864Z,15.50
2019-04-23T01:34:51.666Z,15.40
2019-04-23T01:37:11.009Z,15.30
2019-04-23T01:39:36.143Z,15.30
2019-04-23T01:42:11.841Z,15.30
2019-04-23T01:44:42.437Z,15.40
2019-04-23T01:47:12.146Z,15.20
2019-04-23T01:49:39.193Z,15.10
2019-04-23T01:52:00.366Z,15.10
2019-04-23T01:54:35.081Z,15.10
2019-04-23T01:56:56.258Z,15.00
2019-04-23T01:59:26.280Z,15.00
2019-04-23T02:04:26.654Z,14.90
2019-04-23T02:06:53.709Z,14.90
2019-04-23T02:09:16.763Z,15.00
2019-04-23T02:11:55.238Z,14.80
2019-04-23T02:14:18.252Z,14.80
2019-04-23T02:16:45.946Z,14.70
2019-04-23T02:19:18.185Z,14.70
2019-04-23T02:21:57.745Z,14.60
2019-04-23T02:24:27.784Z,14.60
2019-04-23T02:26:52.204Z,14.60
2019-04-23T02:29:30.004Z,14.50
2019-04-23T02:31:58.075Z,14.50
2019-04-23T02:34:31.182Z,14.40
2019-04-23T02:39:13.060Z,14.40
2019-04-23T02:41:54.574Z,14.30
2019-04-23T02:44:16.993Z,14.30
2019-04-23T02:46:43.236Z,14.30
2019-04-23T03:04:10.470Z,14.00
2019-04-23T03:06:32.259Z,14.00
2019-04-23T03:11:26.198Z,14.00
2019-04-23T03:13:55.576Z,14.10
2019-04-23T03:19:00.320Z,13.90
2019-04-23T03:21:44.617Z,13.80
2019-04-23T03:24:36.557Z,13.80
2019-04-23T03:29:40.462Z,13.70
2019-04-23T03:35:12.324Z,13.80
2019-04-23T03:39:26.012Z,13.60
2019-04-23T03:44:22.367Z,13.50
2019-04-23T03:46:44.881Z,13.50
2019-04-23T03:49:09.745Z,13.50
2019-04-23T03:51:43.315Z,13.40
2019-04-23T03:54:31.969Z,13.50
2019-04-23T04:04:20.247Z,13.30
2019-04-23T04:09:08.088Z,13.30
2019-04-23T04:14:04.830Z,13.20
2019-04-23T04:16:30.897Z,13.20
2019-04-23T04:21:36.832Z,13.20
2019-04-23T04:23:57.720Z,13.20
2019-04-23T04:26:33.749Z,13.10
2019-04-23T04:31:37.496Z,13.10
2019-04-23T04:33:51.021Z,13.10
2019-04-23T04:43:54.227Z,13.10
2019-04-23T04:46:21.714Z,13.10
2019-04-23T04:48:27.223Z,13.10
2019-04-23T04:50:50.802Z,13.00
2019-04-23T04:53:47.095Z,13.00
2019-04-23T04:55:55.403Z,13.00
2019-04-23T04:58:43.955Z,13.00
2019-04-23T05:13:35.330Z,13.10
2019-04-23T05:15:39.085Z,13.10
2019-04-23T05:23:25.674Z,13.30
2019-04-23T05:25:41.203Z,13.20
2019-04-23T05:30:44.536Z,13.30
2019-04-23T05:33:12.928Z,13.30
2019-04-23T05:36:04.335Z,13.40
2019-04-23T05:43:00.062Z,13.50
2019-04-23T05:45:38.263Z,13.50
2019-04-23T05:48:09.744Z,13.60
2019-04-23T05:50:44.768Z,13.70
2019-04-23T05:53:10.166Z,13.80
2019-04-23T05:55:32.270Z,13.90
2019-04-23T05:57:53.994Z,14.20
2019-04-23T06:00:23.673Z,14.40
2019-04-23T06:03:02.629Z,14.80
2019-04-23T06:07:49.854Z,15.10
2019-04-23T06:10:18.091Z,15.40
2019-04-23T06:12:47.196Z,15.60
2019-04-23T06:15:13.404Z,15.90
2019-04-23T06:17:38.095Z,16.10
2019-04-23T06:20:09.159Z,16.30
2019-04-23T06:25:14.975Z,16.80
2019-04-23T06:27:32.076Z,16.90
2019-04-23T06:29:57.384Z,17.10
2019-04-23T06:34:51.252Z,17.40
2019-04-23T06:37:28.411Z,17.50
2019-04-23T06:39:55.683Z,17.60
2019-04-23T06:42:17.480Z,17.70
2019-04-23T06:44:51.688Z,17.80
2019-04-23T06:47:32.508Z,17.90
2019-04-23T06:54:47.658Z,18.10
2019-04-23T06:57:16.319Z,18.10
2019-04-23T06:59:35.297Z,18.10
2019-04-23T07:04:41.004Z,18.10
2019-04-23T07:07:25.623Z,18.20
2019-04-23T07:09:20.668Z,18.20
2019-04-23T07:11:54.108Z,18.20
2019-04-23T07:14:35.808Z,18.20
2019-04-23T07:16:58.497Z,18.20
2019-04-23T07:21:59.261Z,18.20
2019-04-23T07:24:15.199Z,18.20
2019-04-23T07:26:41.854Z,18.20
2019-04-23T07:29:22.770Z,18.30
2019-04-23T07:31:50.009Z,18.30
2019-04-23T07:34:26.461Z,18.30
2019-04-23T07:36:41.102Z,18.40
2019-04-23T07:39:27.272Z,18.50
2019-04-23T07:42:11.159Z,18.40
2019-04-23T07:44:35.507Z,18.50
2019-04-23T07:47:16.212Z,18.50
2019-04-23T07:49:30.747Z,18.60
2019-04-23T07:52:06.320Z,18.70
2019-04-23T07:54:22.835Z,18.70
2019-04-23T07:57:02.171Z,18.70
2019-04-23T07:59:25.131Z,18.80
2019-04-23T08:01:52.372Z,18.90
2019-04-23T08:04:25.506Z,19.00
2019-04-23T08:06:45.967Z,19.00
2019-04-23T08:09:17.594Z,19.10
2019-04-23T08:11:58.019Z,19.10
2019-04-23T08:14:22.404Z,19.20
2019-04-23T08:19:25.529Z,19.40
2019-04-23T08:21:32.081Z,19.40
2019-04-23T08:24:19.868Z,19.50
2019-04-23T08:26:55.256Z,19.60
2019-04-23T08:29:26.834Z,19.70
2019-04-23T08:32:00.588Z,19.70
2019-04-23T08:34:35.845Z,19.80
2019-04-23T08:36:55.371Z,19.80
2019-04-23T08:39:26.518Z,19.90
2019-04-23T08:44:30.233Z,20.00
2019-04-23T08:47:15.602Z,20.10
2019-04-23T08:49:31.222Z,20.20
2019-04-23T08:52:04.411Z,20.40
2019-04-23T08:54:39.717Z,20.50
2019-04-23T08:56:57.057Z,20.70
2019-04-23T08:59:25.249Z,20.80
2019-04-23T09:02:16.646Z,21.00
2019-04-23T09:04:18.558Z,21.10
2019-04-23T09:06:38.404Z,21.20
2019-04-23T09:09:18.066Z,21.40
2019-04-23T09:11:46.038Z,21.60
2019-04-23T09:13:59.647Z,21.70
2019-04-23T09:16:39.793Z,21.80
2019-04-23T09:19:08.905Z,22.00
2019-04-23T09:21:27.055Z,22.20
2019-04-23T09:26:20.492Z,22.50
2019-04-23T09:29:00.676Z,22.60
2019-04-23T09:32:06.218Z,22.60
2019-04-23T09:34:09.944Z,22.60
2019-04-23T09:37:00.260Z,22.60
2019-04-23T09:39:32.717Z,22.60
2019-04-23T09:42:04.838Z,22.50
2019-04-23T09:44:56.857Z,22.50
2019-04-23T09:47:15.927Z,22.40
2019-04-23T09:49:44.352Z,22.30
2019-04-23T09:52:14.471Z,22.30
2019-04-23T09:54:39.888Z,22.20
2019-04-23T09:56:58.542Z,22.20
2019-04-23T10:01:49.782Z,22.10
2019-04-23T10:04:17.039Z,22.00
2019-04-23T10:06:32.538Z,22.00
2019-04-23T10:09:01.726Z,22.00
2019-04-23T10:11:26.080Z,22.00
2019-04-23T10:13:52.855Z,22.10
2019-04-23T10:16:23.339Z,22.20
2019-04-23T10:18:49.121Z,22.10
2019-04-23T10:21:15.615Z,22.30
2019-04-23T10:23:43.171Z,22.20
2019-04-23T10:26:10.071Z,22.30
2019-04-23T10:28:40.115Z,22.40
2019-04-23T10:31:07.131Z,22.40
2019-04-23T10:33:34.389Z,22.40
2019-04-23T10:36:06.387Z,22.50
2019-04-23T10:38:30.201Z,22.60
2019-04-23T10:40:58.018Z,22.60
2019-04-23T10:43:25.053Z,22.60
2019-04-23T10:46:13.655Z,22.70
2019-04-23T10:49:00.683Z,22.70
2019-04-23T10:51:34.071Z,22.80
2019-04-23T10:54:02.732Z,22.80
2019-04-23T10:56:36.192Z,22.90
2019-04-23T10:58:58.449Z,22.90
2019-04-23T11:01:32.023Z,23.00
2019-04-23T11:04:09.831Z,23.10
2019-04-23T11:06:25.282Z,23.20
2019-04-23T11:08:55.902Z,23.30
2019-04-23T11:11:25.507Z,23.40
2019-04-23T11:16:46.183Z,23.60
2019-04-23T11:18:57.171Z,23.70
2019-04-23T11:21:23.968Z,23.70
2019-04-23T11:23:46.671Z,23.80
2019-04-23T11:26:18.692Z,23.80
2019-04-23T11:31:13.810Z,23.90
2019-04-23T11:33:37.917Z,24.00
2019-04-23T11:38:48.772Z,24.00
2019-04-23T11:41:02.007Z,24.00
2019-04-23T11:43:29.037Z,24.00
2019-04-23T11:51:41.817Z,23.90
2019-04-23T11:53:26.091Z,23.90
2019-04-23T11:58:20.321Z,23.90
2019-04-23T12:01:26.143Z,23.80
2019-04-23T12:03:47.161Z,23.80
2019-04-23T12:08:50.911Z,23.90
2019-04-23T12:22:15.254Z,24.00
2019-04-23T12:25:03.748Z,24.10
2019-04-23T12:27:00.982Z,24.10
2019-04-23T12:29:33.108Z,24.20
2019-04-23T12:32:24.175Z,24.20
2019-04-23T12:34:47.515Z,24.20
2019-04-23T12:37:16.430Z,24.30
2019-04-23T12:39:42.471Z,24.40
2019-04-23T12:42:25.541Z,24.50
2019-04-23T12:44:40.539Z,24.50
2019-04-23T12:47:19.086Z,24.60
2019-04-23T12:49:53.312Z,24.60
2019-04-23T12:52:04.981Z,24.70
2019-04-23T12:54:52.085Z,24.70
2019-04-23T12:59:41.398Z,24.70
2019-04-23T13:02:03.055Z,24.80
2019-04-23T13:04:34.474Z,24.80
2019-04-23T13:06:57.479Z,24.80
2019-04-23T13:09:41.876Z,24.80
2019-04-23T13:11:58.019Z,24.80
2019-04-23T13:14:29.621Z,24.80
2019-04-23T13:16:53.987Z,24.90
2019-04-23T13:19:37.313Z,24.90
2019-04-23T13:24:18.760Z,24.90
2019-04-23T13:26:54.066Z,24.90
2019-04-23T13:29:23.794Z,24.90
2019-04-23T13:31:43.928Z,24.90
2019-04-23T13:34:13.480Z,24.90
2019-04-23T13:39:13.117Z,25.00
2019-04-23T13:41:33.559Z,25.00
2019-04-23T13:43:52.707Z,25.10
2019-04-23T13:46:32.701Z,25.10
2019-04-23T13:48:55.762Z,25.20
2019-04-23T13:51:33.918Z,25.20
2019-04-23T13:53:53.167Z,25.20
2019-04-23T13:58:55.003Z,25.40
2019-04-23T14:01:25.404Z,25.40
2019-04-23T14:04:07.518Z,25.50
2019-04-23T14:06:23.073Z,25.50
2019-04-23T14:08:53.779Z,25.60
2019-04-23T14:13:52.192Z,25.70
2019-04-23T14:16:22.783Z,25.70
2019-04-23T14:18:53.973Z,26.00
2019-04-23T14:21:14.149Z,25.80
2019-04-23T14:23:52.481Z,25.80
2019-04-23T14:26:25.808Z,25.80
2019-04-23T14:28:35.506Z,25.80
2019-04-23T14:31:16.787Z,25.80
2019-04-23T14:33:37.416Z,25.80
2019-04-23T14:35:54.124Z,25.80
2019-04-23T14:41:07.750Z,25.80
2019-04-23T14:43:21.952Z,25.80
2019-04-23T14:46:27.158Z,25.80
2019-04-23T14:48:29.818Z,25.80
2019-04-23T14:51:29.308Z,25.80
2019-04-23T14:53:46.331Z,25.80
2019-04-23T14:56:16.559Z,25.90
2019-04-23T14:58:51.286Z,25.80
2019-04-23T15:03:49.342Z,25.80
2019-04-23T15:08:54.635Z,25.80
2019-04-23T15:13:36.571Z,25.70
2019-04-23T15:16:09.799Z,25.70
2019-04-23T15:18:55.839Z,25.70
2019-04-23T15:23:59.017Z,25.60
2019-04-23T15:28:11.378Z,25.50
2019-04-23T15:31:09.591Z,25.50
2019-04-23T15:33:35.481Z,25.50
2019-04-23T15:36:28.848Z,25.50
2019-04-23T15:38:43.375Z,25.50
2019-04-23T15:41:01.988Z,25.50
2019-04-23T15:43:24.796Z,25.40
2019-04-23T15:45:52.674Z,25.40
2019-04-23T15:48:26.574Z,25.40
2019-04-23T15:50:51.723Z,25.40
2019-04-23T15:53:12.252Z,25.30
2019-04-23T15:55:49.292Z,25.20
2019-04-23T15:58:24.683Z,25.20
2019-04-23T16:01:15.367Z,25.10
2019-04-23T16:03:06.987Z,25.10
2019-04-23T16:05:34.960Z,25.10
2019-04-23T16:08:18.177Z,25.00
2019-04-23T16:11:06.891Z,25.00
2019-04-23T16:13:31.033Z,25.00
2019-04-23T16:16:03.496Z,25.00
2019-04-23T16:18:47.918Z,25.00
2019-04-23T16:21:03.473Z,24.90
2019-04-23T16:23:33.798Z,24.90
2019-04-23T16:25:54.271Z,24.90
2019-04-23T16:28:25.788Z,24.90
2019-04-23T16:31:00.970Z,24.90
2019-04-23T16:33:11.215Z,24.90
2019-04-23T16:35:58.618Z,24.90
2019-04-23T16:38:40.820Z,24.80
2019-04-23T16:40:54.696Z,24.70
2019-04-23T16:43:24.488Z,24.70
2019-04-23T16:48:26.213Z,24.60
2019-04-23T16:51:00.859Z,24.60
2019-04-23T16:53:18.791Z,24.60
2019-04-23T17:01:00.430Z,24.50
2019-04-23T17:03:16.019Z,24.40
2019-04-23T17:05:42.842Z,24.40
2019-04-23T17:08:33.778Z,24.30
2019-04-23T17:10:37.845Z,24.30
2019-04-23T17:13:04.936Z,24.20
2019-04-23T17:15:51.023Z,24.20
2019-04-23T17:18:05.566Z,24.20
2019-04-23T17:20:44.129Z,24.10
2019-04-23T17:23:05.122Z,24.10
2019-04-23T17:25:39.490Z,24.10
2019-04-23T17:30:32.358Z,24.00
2019-04-23T17:33:13.885Z,23.90
2019-04-23T17:35:55.691Z,23.90
2019-04-23T17:40:50.341Z,23.80
2019-04-23T17:43:14.627Z,23.80
2019-04-23T17:45:38.521Z,23.70
2019-04-23T17:50:50.062Z,23.60
2019-04-23T17:55:54.989Z,23.60
2019-04-23T17:58:19.893Z,23.50
2019-04-23T18:00:51.701Z,23.50
2019-04-23T18:03:20.350Z,23.50
2019-04-23T18:05:40.732Z,23.40
2019-04-23T18:10:43.926Z,23.30
2019-04-23T18:13:05.219Z,23.30
2019-04-23T18:15:27.501Z,23.20
2019-04-23T18:18:02.578Z,23.20
2019-04-23T18:20:36.888Z,23.10
2019-04-23T18:25:46.579Z,23.00
2019-04-23T18:28:24.641Z,22.90
2019-04-23T18:31:05.892Z,22.80
2019-04-23T18:35:51.300Z,22.70
2019-04-23T18:38:34.145Z,22.60
2019-04-23T18:45:54.014Z,22.40
2019-04-23T18:48:38.991Z,22.30
2019-04-23T18:50:59.820Z,22.20
2019-04-23T18:53:33.535Z,22.10
2019-04-23T18:56:03.579Z,22.00
2019-04-23T18:58:21.155Z,22.00
2019-04-23T19:00:57.088Z,21.90
2019-04-23T19:03:30.591Z,21.80
2019-04-23T19:06:07.126Z,21.80
2019-04-23T19:10:59.877Z,21.60
2019-04-23T19:13:40.139Z,21.50
2019-04-23T19:15:53.111Z,21.50
2019-04-23T19:18:36.407Z,21.40
2019-04-23T19:21:07.774Z,21.30
2019-04-23T19:23:32.557Z,21.20
2019-04-23T19:25:46.809Z,21.20
2019-04-23T19:28:38.193Z,21.10
2019-04-23T19:31:05.598Z,21.00
2019-04-23T19:38:33.332Z,20.90
2019-04-23T19:41:03.827Z,20.90
2019-04-23T19:43:32.888Z,20.70
2019-04-23T19:46:02.031Z,20.60
2019-04-23T19:48:32.746Z,20.60
2019-04-23T19:53:32.326Z,20.50
2019-04-23T19:56:04.383Z,20.70
2019-04-23T19:58:27.742Z,20.50
2019-04-23T20:03:26.681Z,20.30
2019-04-23T20:05:47.215Z,20.30
2019-04-23T20:08:24.720Z,20.30
2019-04-23T20:10:39.544Z,20.20
2019-04-23T20:13:13.545Z,20.10
2019-04-23T20:15:47.576Z,20.10
2019-04-23T20:17:57.634Z,20.10
2019-04-23T20:20:42.450Z,20.00
2019-04-23T20:23:13.411Z,19.90
2019-04-23T20:26:10.320Z,19.90
2019-04-23T20:28:20.175Z,19.90
2019-04-23T20:30:54.063Z,19.80
2019-04-23T20:35:38.370Z,19.70
2019-04-23T20:40:41.113Z,19.70
2019-04-23T20:42:58.330Z,19.70
2019-04-23T20:45:39.641Z,19.60
2019-04-23T20:48:02.188Z,19.60
2019-04-23T20:50:27.320Z,19.60
2019-04-23T20:52:51.523Z,19.50
2019-04-23T20:55:29.255Z,19.50
2019-04-23T20:58:09.516Z,19.50
2019-04-23T21:01:09.261Z,19.50
2019-04-23T21:03:45.592Z,19.40
2019-04-23T21:05:44.645Z,19.40
2019-04-23T21:08:14.486Z,19.30
2019-04-23T21:15:38.836Z,19.30
2019-04-23T21:18:10.786Z,19.20
2019-04-23T21:20:36.716Z,19.20
2019-04-23T21:30:58.537Z,19.10
2019-04-23T21:36:12.533Z,19.00
2019-04-23T21:38:47.539Z,18.90
2019-04-23T21:41:45.303Z,18.90
2019-04-23T21:46:24.063Z,18.80
2019-04-23T21:49:01.721Z,18.80
2019-04-23T21:53:46.278Z,18.70
2019-04-23T21:58:53.326Z,18.60
2019-04-23T22:01:28.109Z,18.60
2019-04-23T22:06:22.125Z,18.60
2019-04-23T22:08:53.263Z,18.50
2019-04-23T22:11:44.274Z,18.50
2019-04-23T22:16:16.902Z,18.50
2019-04-23T22:19:01.875Z,18.40
2019-04-23T22:21:15.638Z,18.40
2019-04-23T22:23:52.875Z,18.30
2019-04-23T22:28:43.812Z,18.30
2019-04-23T22:31:13.759Z,18.30
2019-04-23T22:33:37.368Z,18.30
2019-04-23T22:36:01.689Z,18.20
2019-04-23T22:38:29.399Z,18.20
2019-04-23T22:40:56.385Z,18.20
2019-04-23T22:43:20.831Z,18.20
2019-04-23T22:46:02.929Z,18.10
2019-04-23T22:48:25.461Z,18.10
2019-04-23T22:51:06.614Z,18.10
2019-04-23T22:58:27.713Z,18.00
2019-04-23T23:01:02.559Z,18.00
2019-04-23T23:08:33.566Z,18.00
2019-04-23T23:10:56.941Z,18.00
2019-04-23T23:15:53.205Z,18.00
2019-04-23T23:18:19.664Z,17.90
2019-04-23T23:20:52.591Z,17.90
2019-04-23T23:25:50.595Z,18.00
2019-04-23T23:31:00.238Z,18.00
2019-04-23T23:33:12.786Z,18.00
2019-04-23T23:40:36.502Z,18.00
2019-04-23T23:43:14.053Z,18.00
2019-04-23T23:50:36.592Z,18.00
2019-04-23T23:53:04.016Z,18.00
2019-04-23T23:55:27.948Z,18.00
2019-04-23T23:58:07.066Z,18.00
